createdAt,value
2022-10-05T00:01:25.739Z,101804.21
2022-10-05T00:04:06.560Z,101805.24
2022-10-05T00:06:35.627Z,101808.34
2022-10-05T00:09:16.214Z,101809.27
2022-10-05T00:11:46.344Z,101812.70
2022-10-05T00:14:31.552Z,101812.58
2022-10-05T00:17:02.314Z,101812.43
2022-10-05T00:19:37.538Z,101814.32
2022-10-05T00:22:09.275Z,101812.36
2022-10-05T00:24:39.427Z,101815.79
2022-10-05T00:27:33.427Z,101816.28
2022-10-05T00:30:17.142Z,101814.14
2022-10-05T00:32:46.739Z,101817.64
2022-10-05T00:35:18.911Z,101820.75
2022-10-05T00:37:53.677Z,101824.38
2022-10-05T00:41:14.981Z,101826.77
2022-10-05T00:44:01.660Z,101833.10
2022-10-05T00:46:41.652Z,101832.38
2022-10-05T00:49:50.836Z,101832.00
2022-10-05T00:52:50.901Z,101833.27
2022-10-05T00:55:44.829Z,101832.04
2022-10-05T00:58:34.146Z,101838.84
2022-10-05T01:01:15.471Z,101834.73
2022-10-05T01:04:11.441Z,101840.59
2022-10-05T01:07:13.576Z,101842.94
2022-10-05T01:10:22.799Z,101837.65
2022-10-05T01:13:15.963Z,101847.59
2022-10-05T01:15:59.103Z,101849.93
2022-10-05T01:18:53.691Z,101852.97
2022-10-05T01:21:26.461Z,101857.81
2022-10-05T01:24:30.969Z,101855.13
2022-10-05T01:27:42.038Z,101861.90
2022-10-05T01:30:20.193Z,101862.02
2022-10-05T01:33:09.945Z,101865.73
2022-10-05T01:36:21.815Z,101871.45
2022-10-05T01:39:08.680Z,101872.74
2022-10-05T01:42:29.847Z,101872.08
2022-10-05T01:45:10.095Z,101875.85
2022-10-05T01:48:00.267Z,101879.80
2022-10-05T01:51:32.608Z,101885.90
2022-10-05T01:54:36.267Z,101887.33
2022-10-05T01:57:49.446Z,101891.57
2022-10-05T02:00:19.335Z,101893.73
2022-10-05T02:03:08.627Z,101896.80
2022-10-05T02:05:58.349Z,101899.05
2022-10-05T02:08:44.256Z,101904.28
2022-10-05T02:11:15.385Z,101899.66
2022-10-05T02:13:56.293Z,101908.98
2022-10-05T02:16:40.483Z,101908.98
2022-10-05T02:19:22.742Z,101909.39
2022-10-05T02:22:03.878Z,101913.84
2022-10-05T02:24:49.235Z,101919.77
2022-10-05T02:27:27.926Z,101922.45
2022-10-05T02:30:05.438Z,101924.56
2022-10-05T02:32:54.408Z,101926.16
2022-10-05T02:35:24.209Z,101925.89
2022-10-05T02:38:24.628Z,101931.95
2022-10-05T02:41:49.046Z,101937.14
2022-10-05T02:44:41.685Z,101938.21
2022-10-05T02:47:29.734Z,101939.83
2022-10-05T02:50:27.500Z,101940.58
2022-10-05T02:53:23.714Z,101941.49
2022-10-05T02:56:07.955Z,101943.88
2022-10-05T02:58:57.096Z,101943.20
2022-10-05T03:01:50.064Z,101944.79
2022-10-05T03:04:51.326Z,101945.13
2022-10-05T03:07:53.911Z,101949.41
2022-10-05T03:10:58.314Z,101952.27
2022-10-05T03:14:01.165Z,101953.02
2022-10-05T03:17:06.857Z,101962.18
2022-10-05T03:20:14.144Z,101955.86
2022-10-05T03:23:02.075Z,101963.02
2022-10-05T03:26:31.110Z,101968.05
2022-10-05T03:29:27.392Z,101967.79
2022-10-05T03:32:24.265Z,101967.30
2022-10-05T03:35:12.582Z,101972.89
2022-10-05T03:38:11.894Z,101976.30
2022-10-05T03:41:05.727Z,101980.05
2022-10-05T03:44:23.057Z,101975.20
2022-10-05T03:47:16.456Z,101977.61
2022-10-05T03:50:16.585Z,101972.63
2022-10-05T03:52:56.971Z,101968.84
2022-10-05T03:55:54.851Z,101970.30
2022-10-05T03:58:37.439Z,101968.18
2022-10-05T04:01:16.508Z,101970.52
2022-10-05T04:03:55.272Z,101971.77
2022-10-05T04:06:38.867Z,101971.44
2022-10-05T04:09:52.058Z,101966.16
2022-10-05T04:13:01.924Z,101973.55
2022-10-05T04:16:03.635Z,101984.05
2022-10-05T04:25:33.109Z,102001.53
2022-10-05T04:28:33.313Z,102004.81
2022-10-05T04:31:07.040Z,102007.68
2022-10-05T04:33:36.952Z,102004.71
2022-10-05T04:36:30.320Z,102000.23
2022-10-05T04:39:09.900Z,102005.15
2022-10-05T04:42:14.652Z,102003.20
2022-10-05T04:45:20.511Z,102012.26
2022-10-05T04:48:31.462Z,102018.46
2022-10-05T04:51:51.523Z,102018.17
2022-10-05T04:55:17.419Z,102015.44
2022-10-05T04:58:59.522Z,102021.94
2022-10-05T05:02:31.002Z,102020.86
2022-10-05T05:06:05.050Z,102026.19
2022-10-05T05:09:12.665Z,102015.00
2022-10-05T05:12:17.050Z,102024.29
2022-10-05T05:15:04.337Z,102025.84
2022-10-05T05:17:33.311Z,102027.96
2022-10-05T05:21:24.185Z,102025.90
2022-10-05T05:24:21.587Z,102031.61
2022-10-05T05:27:14.935Z,102035.41
2022-10-05T05:31:03.935Z,102038.60
2022-10-05T05:33:58.580Z,102040.66
2022-10-05T05:37:13.929Z,102044.23
2022-10-05T05:39:53.757Z,102041.89
2022-10-05T05:43:08.987Z,102049.48
2022-10-05T05:46:38.872Z,102046.83
2022-10-05T05:49:53.790Z,102046.91
2022-10-05T05:53:13.682Z,102047.77
2022-10-05T05:55:52.669Z,102046.98
2022-10-05T05:58:49.836Z,102051.18
2022-10-05T06:01:46.566Z,102053.52
2022-10-05T06:04:56.003Z,102046.38
2022-10-05T06:07:48.180Z,102051.33
2022-10-05T06:10:34.158Z,102057.32
2022-10-05T06:13:29.713Z,102068.04
2022-10-05T06:16:46.311Z,102071.73
2022-10-05T06:19:23.214Z,102076.70
2022-10-05T06:22:26.456Z,102075.09
2022-10-05T06:25:13.617Z,102082.73
2022-10-05T06:28:35.126Z,102080.05
2022-10-05T06:32:13.025Z,102080.41
2022-10-05T06:35:37.989Z,102094.63
2022-10-05T06:39:03.222Z,102089.01
2022-10-05T06:42:06.380Z,102104.47
2022-10-05T06:45:40.379Z,102110.77
2022-10-05T06:48:54.363Z,102118.95
2022-10-05T06:52:15.459Z,102111.67
2022-10-05T06:55:03.451Z,102108.71
2022-10-05T06:58:31.064Z,102116.62
2022-10-05T07:01:11.326Z,102120.70
2022-10-05T07:04:02.621Z,102122.41
2022-10-05T07:06:55.110Z,102127.08
2022-10-05T07:09:50.786Z,102119.15
2022-10-05T07:12:47.917Z,102114.94
2022-10-05T07:15:42.681Z,102134.02
2022-10-05T07:18:35.683Z,102134.23
2022-10-05T07:21:22.038Z,102134.75
2022-10-05T07:24:03.138Z,102133.64
2022-10-05T07:26:32.350Z,102132.46
2022-10-05T07:29:07.978Z,102128.59
2022-10-05T07:32:10.249Z,102134.52
2022-10-05T07:35:33.257Z,102136.11
2022-10-05T07:38:25.867Z,102137.61
2022-10-05T07:41:34.154Z,102134.46
2022-10-05T07:45:11.372Z,102139.91
2022-10-05T07:48:04.303Z,102137.72
2022-10-05T07:50:57.492Z,102139.05
2022-10-05T07:53:42.039Z,102134.16
2022-10-05T07:56:51.962Z,102139.17
2022-10-05T08:00:06.660Z,102153.10
2022-10-05T08:03:10.824Z,102144.44
2022-10-05T08:06:03.081Z,102146.08
2022-10-05T08:09:15.944Z,102140.61
2022-10-05T08:12:12.096Z,102147.45
2022-10-05T08:15:16.409Z,102142.38
2022-10-05T08:18:37.486Z,102145.08
2022-10-05T08:21:50.368Z,102132.11
2022-10-05T08:25:05.645Z,102133.64
2022-10-05T08:28:23.721Z,102132.77
2022-10-05T08:31:41.084Z,102128.73
2022-10-05T08:34:46.361Z,102135.61
2022-10-05T08:38:05.348Z,102138.46
2022-10-05T08:41:03.345Z,102124.33
2022-10-05T08:44:02.585Z,102126.46
2022-10-05T08:46:46.767Z,102123.09
2022-10-05T08:49:52.935Z,102109.64
2022-10-05T08:52:31.850Z,102122.61
2022-10-05T08:55:46.543Z,102122.02
2022-10-05T08:58:39.665Z,102129.75
2022-10-05T09:01:32.453Z,102127.77
2022-10-05T09:04:07.373Z,102117.83
2022-10-05T09:07:18.294Z,102141.89
2022-10-05T09:10:37.569Z,102125.84
2022-10-05T09:14:02.894Z,102132.75
2022-10-05T09:17:21.588Z,102142.34
2022-10-05T09:20:26.421Z,102154.37
2022-10-05T09:23:11.084Z,102162.77
2022-10-05T09:26:25.318Z,102157.36
2022-10-05T09:29:15.299Z,102148.80
2022-10-05T09:32:16.429Z,102141.37
2022-10-05T09:35:05.122Z,102142.01
2022-10-05T09:38:18.743Z,102149.59
2022-10-05T09:41:15.967Z,102139.42
2022-10-05T09:44:30.279Z,102132.55
2022-10-05T09:47:31.247Z,102134.15
2022-10-05T09:50:58.236Z,102139.06
2022-10-05T09:54:08.685Z,102122.55
2022-10-05T09:57:18.377Z,102097.13
2022-10-05T10:00:34.783Z,102099.63
2022-10-05T10:03:46.155Z,102101.98
2022-10-05T10:06:56.381Z,102103.39
2022-10-05T10:09:54.841Z,102096.88
2022-10-05T10:13:20.431Z,102112.05
2022-10-05T10:16:30.956Z,102110.73
2022-10-05T10:19:08.734Z,102116.03
2022-10-05T10:22:34.134Z,102117.02
2022-10-05T10:25:17.100Z,102118.20
2022-10-05T10:28:29.751Z,102116.20
2022-10-05T10:31:50.729Z,102111.58
2022-10-05T10:35:23.212Z,102109.71
2022-10-05T10:38:17.510Z,102107.33
2022-10-05T10:41:33.935Z,102103.32
2022-10-05T10:44:42.558Z,102097.58
2022-10-05T10:47:45.834Z,102100.98
2022-10-05T10:51:05.698Z,102099.82
2022-10-05T10:54:09.857Z,102098.25
2022-10-05T10:57:23.569Z,102098.29
2022-10-05T11:00:24.666Z,102096.39
2022-10-05T11:03:47.176Z,102105.48
2022-10-05T11:07:26.416Z,102097.98
2022-10-05T11:10:46.745Z,102089.47
2022-10-05T11:14:10.483Z,102083.39
2022-10-05T11:17:33.872Z,102069.98
2022-10-05T11:20:41.523Z,102057.73
2022-10-05T11:24:21.092Z,102053.79
2022-10-05T11:27:27.302Z,102042.98
2022-10-05T11:30:28.532Z,102035.08
2022-10-05T11:33:28.201Z,102027.31
2022-10-05T11:36:44.953Z,102032.55
2022-10-05T11:40:05.562Z,102031.05
2022-10-05T11:43:16.003Z,102022.21
2022-10-05T11:46:16.742Z,102024.35
2022-10-05T11:49:34.705Z,102037.08
2022-10-05T11:52:13.831Z,102033.68
2022-10-05T11:55:21.035Z,102036.79
2022-10-05T11:58:24.580Z,102029.73
2022-10-05T12:01:18.487Z,102032.69
2022-10-05T12:04:14.978Z,102028.42
2022-10-05T12:07:11.109Z,102025.24
2022-10-05T12:10:18.614Z,102037.16
2022-10-05T12:13:00.226Z,102043.34
2022-10-05T12:16:01.463Z,102039.02
2022-10-05T12:18:30.619Z,102041.36
2022-10-05T12:21:53.371Z,102033.73
2022-10-05T12:24:47.371Z,102038.05
2022-10-05T12:27:41.997Z,102037.14
2022-10-05T12:30:59.340Z,102039.27
2022-10-05T12:34:14.392Z,102032.61
2022-10-05T12:37:06.462Z,102025.17
2022-10-05T12:40:15.053Z,102027.45
2022-10-05T12:42:59.149Z,102033.69
2022-10-05T12:45:55.631Z,102019.76
2022-10-05T12:49:05.628Z,102011.75
2022-10-05T12:52:46.301Z,102017.31
2022-10-05T12:55:43.371Z,101999.02
2022-10-05T12:58:58.462Z,102003.55
2022-10-05T13:02:31.442Z,102012.85
2022-10-05T13:05:11.766Z,102008.48
2022-10-05T13:08:18.279Z,102017.00
2022-10-05T13:11:21.477Z,102026.34
2022-10-05T13:14:58.207Z,102032.02
2022-10-05T13:18:06.607Z,102034.80
2022-10-05T13:21:03.396Z,102035.62
2022-10-05T13:23:57.581Z,102030.65
2022-10-05T13:26:54.586Z,102023.47
2022-10-05T13:29:51.044Z,102019.60
2022-10-05T13:33:00.497Z,102022.96
2022-10-05T13:36:27.743Z,102021.34
2022-10-05T13:39:39.701Z,102014.68
2022-10-05T13:42:45.258Z,102021.91
2022-10-05T13:45:24.951Z,102013.16
2022-10-05T13:48:25.523Z,102021.73
2022-10-05T13:51:01.600Z,102018.35
2022-10-05T13:53:48.914Z,102019.41
2022-10-05T13:56:59.403Z,102016.77
2022-10-05T14:00:00.464Z,102009.75
2022-10-05T14:03:04.812Z,102013.08
2022-10-05T14:05:35.781Z,102011.40
2022-10-05T14:08:07.153Z,102008.96
2022-10-05T14:11:02.038Z,102009.02
2022-10-05T14:14:22.894Z,102008.80
2022-10-05T14:17:36.399Z,102008.87
2022-10-05T14:24:00.893Z,102006.43
2022-10-05T14:26:36.196Z,102003.95
2022-10-05T14:29:36.821Z,101995.17
2022-10-05T14:32:23.029Z,102006.84
2022-10-05T14:35:13.278Z,102006.75
2022-10-05T14:37:56.510Z,102006.23
2022-10-05T14:40:35.478Z,102006.51
2022-10-05T14:43:25.081Z,102004.95
2022-10-05T14:46:01.081Z,102007.59
2022-10-05T14:48:48.252Z,102005.84
2022-10-05T14:51:32.241Z,102004.96
2022-10-05T14:54:21.892Z,101998.30
2022-10-05T14:57:17.674Z,102003.12
2022-10-05T15:00:04.952Z,102010.29
2022-10-05T15:03:16.638Z,102010.82
2022-10-05T15:06:09.037Z,102013.52
2022-10-05T15:09:28.610Z,102010.23
2022-10-05T15:12:01.592Z,102010.05
2022-10-05T15:14:38.753Z,102013.03
2022-10-05T15:17:43.083Z,102010.31
2022-10-05T15:20:31.945Z,102022.70
2022-10-05T15:23:38.420Z,102023.09
2022-10-05T15:26:48.845Z,102023.96
2022-10-05T15:30:11.979Z,102027.76
2022-10-05T15:32:59.188Z,102031.36
2022-10-05T15:36:00.864Z,102037.44
2022-10-05T15:39:06.911Z,102045.21
2022-10-05T15:41:36.333Z,102049.95
2022-10-05T15:44:29.972Z,102052.45
2022-10-05T15:47:06.263Z,102052.02
2022-10-05T15:50:14.641Z,102050.75
2022-10-05T15:52:55.641Z,102035.14
2022-10-05T15:55:36.129Z,102037.17
2022-10-05T15:58:50.312Z,102036.09
2022-10-05T16:01:34.521Z,102044.64
2022-10-05T16:04:12.851Z,102042.44
2022-10-05T16:07:17.252Z,102028.02
2022-10-05T16:10:07.284Z,102045.55
2022-10-05T16:13:30.217Z,102046.33
2022-10-05T16:16:21.153Z,102048.83
2022-10-05T16:19:25.490Z,102050.81
2022-10-05T16:22:19.321Z,102050.55
2022-10-05T16:25:03.323Z,102053.46
2022-10-05T16:28:05.229Z,102057.83
2022-10-05T16:31:18.062Z,102056.36
2022-10-05T16:34:01.084Z,102055.53
2022-10-05T16:36:46.564Z,102060.56
2022-10-05T16:39:50.975Z,102059.70
2022-10-05T16:42:42.569Z,102061.27
2022-10-05T16:45:52.410Z,102063.11
2022-10-05T16:49:07.789Z,102060.08
2022-10-05T16:52:16.680Z,102055.21
2022-10-05T16:54:59.564Z,102046.45
2022-10-05T16:57:38.054Z,102055.61
2022-10-05T17:00:35.185Z,102053.58
2022-10-05T17:03:19.218Z,102054.41
2022-10-05T17:06:38.899Z,102056.09
2022-10-05T17:09:17.363Z,102057.99
2022-10-05T17:11:56.765Z,102058.95
2022-10-05T17:15:01.527Z,102058.59
2022-10-05T17:18:24.016Z,102055.65
2022-10-05T17:21:14.878Z,102063.06
2022-10-05T17:24:29.149Z,102066.42
2022-10-05T17:27:50.975Z,102071.60
2022-10-05T17:30:23.917Z,102069.39
2022-10-05T17:33:17.780Z,102072.40
2022-10-05T17:36:08.823Z,102077.10
2022-10-05T17:39:14.203Z,102082.54
2022-10-05T17:41:47.309Z,102084.25
2022-10-05T17:44:26.670Z,102076.28
2022-10-05T17:47:14.324Z,102089.16
2022-10-05T17:50:18.767Z,102092.77
2022-10-05T17:53:38.671Z,102096.27
2022-10-05T17:56:11.682Z,102093.65
2022-10-05T17:58:55.990Z,102101.00
2022-10-05T18:01:35.078Z,102088.66
2022-10-05T18:04:18.930Z,102104.98
2022-10-05T18:07:02.202Z,102087.93
2022-10-05T18:09:36.642Z,102097.08
2022-10-05T18:12:18.524Z,102097.44
2022-10-05T18:15:07.567Z,102098.80
2022-10-05T18:17:56.656Z,102090.70
2022-10-05T18:20:31.165Z,102082.27
2022-10-05T18:23:04.198Z,102091.41
2022-10-05T18:25:53.576Z,102089.70
2022-10-05T18:29:02.581Z,102089.77
2022-10-05T18:31:45.777Z,102089.82
2022-10-05T18:35:01.970Z,102090.34
2022-10-05T18:38:16.915Z,102088.63
2022-10-05T18:41:17.760Z,102077.16
2022-10-05T18:44:21.176Z,102080.26
2022-10-05T18:47:09.592Z,102079.67
2022-10-05T18:50:05.407Z,102086.00
2022-10-05T18:52:55.858Z,102091.36
2022-10-05T18:55:48.191Z,102089.52
2022-10-05T18:58:28.524Z,102086.52
2022-10-05T19:01:28.224Z,102074.88
2022-10-05T19:04:27.807Z,102085.77
2022-10-05T19:07:05.273Z,102086.36
2022-10-05T19:10:21.390Z,102078.42
2022-10-05T19:13:07.544Z,102090.94
2022-10-05T19:15:46.562Z,102094.77
2022-10-05T19:18:30.758Z,102090.61
2022-10-05T19:21:21.786Z,102101.86
2022-10-05T19:24:11.838Z,102102.88
2022-10-05T19:26:59.076Z,102102.61
2022-10-05T19:29:57.260Z,102103.95
2022-10-05T19:32:47.275Z,102104.21
2022-10-05T19:35:23.796Z,102108.58
2022-10-05T19:38:16.691Z,102098.02
2022-10-05T19:41:18.260Z,102104.05
2022-10-05T19:43:55.159Z,102105.21
2022-10-05T19:46:44.908Z,102110.59
2022-10-05T19:49:47.790Z,102110.98
2022-10-05T19:52:37.022Z,102113.18
2022-10-05T19:55:16.946Z,102115.38
2022-10-05T19:57:51.625Z,102110.06
2022-10-05T20:00:34.218Z,102112.45
2022-10-05T20:03:27.509Z,102110.55
2022-10-05T20:06:02.816Z,102111.17
2022-10-05T20:08:51.200Z,102109.78
2022-10-05T20:11:27.594Z,102106.75
2022-10-05T20:14:02.458Z,102106.23
2022-10-05T20:16:51.559Z,102107.15
2022-10-05T20:19:49.849Z,102101.44
2022-10-05T20:22:30.008Z,102111.27
2022-10-05T20:25:06.383Z,102113.46
2022-10-05T20:27:47.536Z,102114.75
2022-10-05T20:30:21.061Z,102110.31
2022-10-05T20:33:04.854Z,102109.98
2022-10-05T20:35:33.863Z,102109.81
2022-10-05T20:38:02.956Z,102108.58
2022-10-05T20:40:35.355Z,102110.00
2022-10-05T20:43:04.462Z,102110.92
2022-10-05T20:45:33.561Z,102109.13
2022-10-05T20:48:03.820Z,102111.82
2022-10-05T20:50:33.124Z,102109.53
2022-10-05T20:53:01.953Z,102112.71
2022-10-05T20:55:31.627Z,102114.67
2022-10-05T20:58:02.220Z,102113.22
2022-10-05T21:00:51.265Z,102110.00
2022-10-05T21:03:20.220Z,102103.94
2022-10-05T21:05:49.103Z,102096.61
2022-10-05T21:08:18.125Z,102096.45
2022-10-05T21:10:47.063Z,102090.92
2022-10-05T21:13:16.137Z,102091.55
2022-10-05T21:15:45.124Z,102087.52
2022-10-05T21:18:16.091Z,102092.06
2022-10-05T21:20:48.872Z,102089.25
2022-10-05T21:23:17.819Z,102090.63
2022-10-05T21:25:48.729Z,102086.20
2022-10-05T21:28:17.863Z,102089.36
2022-10-05T21:30:46.924Z,102091.14
2022-10-05T21:33:15.986Z,102094.66
2022-10-05T21:35:45.141Z,102092.68
2022-10-05T21:38:14.409Z,102087.82
2022-10-05T21:40:46.134Z,102087.61
2022-10-05T21:43:15.273Z,102079.38
2022-10-05T21:45:46.065Z,102075.42
2022-10-05T21:48:17.015Z,102071.33
2022-10-05T21:50:46.513Z,102060.45
2022-10-05T21:53:18.942Z,102060.27
2022-10-05T22:08:34.356Z,102055.87
2022-10-05T22:11:15.786Z,102050.12
2022-10-05T22:13:49.416Z,102049.04
2022-10-05T22:16:23.933Z,102054.14
2022-10-05T22:18:53.890Z,102045.66
2022-10-05T22:21:22.735Z,102041.23
2022-10-05T22:23:51.559Z,102054.23
2022-10-05T22:26:22.986Z,102067.59
2022-10-05T22:28:55.805Z,102072.27
2022-10-05T22:31:24.817Z,102070.51
2022-10-05T22:33:53.621Z,102069.98
2022-10-05T22:36:22.680Z,102072.36
2022-10-05T22:38:52.205Z,102075.29
2022-10-05T22:41:21.032Z,102068.21
2022-10-05T22:43:51.520Z,102077.45
2022-10-05T22:46:20.539Z,102085.31
2022-10-05T22:48:49.422Z,102092.62
2022-10-05T22:51:18.152Z,102090.64
2022-10-05T22:53:47.043Z,102090.13
2022-10-05T22:56:17.512Z,102084.09
2022-10-05T22:58:46.882Z,102089.06
2022-10-05T23:01:18.603Z,102089.06
2022-10-05T23:03:47.756Z,102076.25
2022-10-05T23:06:20.778Z,102085.86
2022-10-05T23:08:49.695Z,102079.60
2022-10-05T23:11:26.349Z,102075.66
2022-10-05T23:13:57.131Z,102072.45
2022-10-05T23:16:29.024Z,102067.10
2022-10-05T23:18:58.800Z,102065.13
2022-10-05T23:21:30.647Z,102066.55
2022-10-05T23:23:59.392Z,102065.13
2022-10-05T23:26:28.400Z,102068.16
2022-10-05T23:28:57.460Z,102057.81
2022-10-05T23:31:30.688Z,102056.20
2022-10-05T23:34:00.036Z,102055.67
2022-10-05T23:36:33.563Z,102052.46
2022-10-05T23:39:02.578Z,102046.41
2022-10-05T23:41:31.387Z,102047.34
2022-10-05T23:44:00.281Z,102046.66
2022-10-05T23:46:29.178Z,102039.00
2022-10-05T23:48:57.997Z,102034.02
2022-10-05T23:51:26.877Z,102032.45
2022-10-05T23:53:55.701Z,102030.85
2022-10-05T23:56:25.669Z,102029.48
2022-10-05T23:58:54.513Z,102033.04
